Time;durP1;ratioP1;P1;durP2;ratioP2;P2;SDS_P1;SDS_P2;PMS_P1;PMS_P2;Temp;Humidity;BMP_temperature;BMP_pressure;BME280_temperature;BME280_humidity;BME280_pressure;Samples;Min_cycle;Max_cycle;Signal;HPM_P1;HPM_P2
2024/02/25 00:02:05;;;;;;;21.77;14.05;;;;;;;11.71;75.48;99439.66;5111278;28;20052;-74
2024/02/25 00:04:30;;;;;;;23.70;13.98;;;;;;;11.65;75.83;99443.84;5100630;28;20094;-74
2024/02/25 00:06:56;;;;;;;27.27;14.98;;;;;;;11.58;75.77;99435.97;5073623;28;20554;-74
2024/02/25 00:09:21;;;;;;;24.92;14.57;;;;;;;11.49;76.49;99432.44;5092611;28;20024;-74
2024/02/25 00:11:47;;;;;;;28.10;16.83;;;;;;;11.52;76.68;99445.75;5075255;28;20037;-74
2024/02/25 00:14:12;;;;;;;24.30;14.25;;;;;;;11.59;76.08;99442.41;5079883;28;20059;-74
2024/02/25 00:16:38;;;;;;;34.72;19.10;;;;;;;11.68;74.93;99445.13;5091667;28;20035;-74
2024/02/25 00:19:03;;;;;;;34.15;17.55;;;;;;;11.75;74.47;99439.78;5092478;28;20016;-74
2024/02/25 00:21:29;;;;;;;36.65;17.40;;;;;;;11.57;74.89;99439.94;5092602;28;20734;-74
2024/02/25 00:23:55;;;;;;;28.40;15.68;;;;;;;11.60;74.41;99435.63;5093183;28;20031;-74
2024/02/25 00:26:21;;;;;;;26.70;15.77;;;;;;;11.62;74.64;99436.09;5092531;28;20055;-74
2024/02/25 00:28:46;;;;;;;26.40;15.70;;;;;;;11.57;75.23;99434.31;5092383;28;20023;-74
2024/02/25 00:31:12;;;;;;;24.35;15.43;;;;;;;11.41;75.68;99436.13;5074132;28;20601;-74
2024/02/25 00:33:37;;;;;;;25.13;15.23;;;;;;;11.35;76.36;99429.91;5109078;28;20110;-74
2024/02/25 00:36:03;;;;;;;28.27;16.27;;;;;;;11.29;76.43;99434.09;5092173;28;20072;-74
2024/02/25 00:38:28;;;;;;;29.48;17.00;;;;;;;11.35;76.32;99432.69;5073976;28;20044;-74
2024/02/25 00:40:54;;;;;;;33.05;16.95;;;;;;;11.18;77.14;99425.25;5074043;28;20016;-74
2024/02/25 00:43:19;;;;;;;31.88;16.48;;;;;;;11.08;78.27;99438.47;5079011;28;20031;-74
2024/02/25 00:45:45;;;;;;;28.35;17.67;;;;;;;11.13;78.07;99433.84;5091931;28;20031;-74
2024/02/25 00:48:12;;;;;;;21.25;14.38;;;;;;;11.15;77.87;99434.34;5103817;28;20448;-74
2024/02/25 00:50:38;;;;;;;24.42;15.63;;;;;;;11.21;77.76;99432.97;5093541;28;20024;-74
2024/02/25 00:53:03;;;;;;;25.95;15.68;;;;;;;11.26;77.29;99429.97;5091893;28;20073;-73
2024/02/25 00:55:29;;;;;;;22.88;14.25;;;;;;;11.34;76.87;99431.06;5091708;28;20035;-74
2024/02/25 00:57:54;;;;;;;25.33;14.65;;;;;;;11.68;75.18;99431.09;5091747;28;20072;-74
2024/02/25 01:00:20;;;;;;;26.27;16.40;;;;;;;11.62;73.98;99414.53;5103247;28;20038;-74
2024/02/25 01:02:46;;;;;;;25.80;14.65;;;;;;;11.48;74.50;99425.19;5112253;28;20023;-74
2024/02/25 01:05:12;;;;;;;26.05;14.45;;;;;;;11.65;74.04;99413.81;5093092;28;20023;-73
2024/02/25 01:07:38;;;;;;;42.53;16.88;;;;;;;11.44;74.93;99410.22;5094011;28;20019;-73
2024/02/25 01:10:05;;;;;;;22.45;15.05;;;;;;;11.46;75.35;99410.69;5093282;28;20392;-73
2024/02/25 01:12:30;;;;;;;25.25;15.05;;;;;;;11.54;74.43;99411.81;5112381;28;20027;-73
2024/02/25 01:14:56;;;;;;;26.50;14.73;;;;;;;10.96;75.70;99390.81;5111425;28;20524;-72
2024/02/25 01:17:21;;;;;;;26.63;14.50;;;;;;;10.96;76.36;99413.19;5092550;28;20034;-73
2024/02/25 01:19:47;;;;;;;20.23;14.02;;;;;;;10.91;76.70;99405.00;5090332;28;20083;-73
2024/02/25 01:22:12;;;;;;;20.13;12.98;;;;;;;10.71;77.46;99387.84;5083268;28;20039;-73
2024/02/25 01:24:38;;;;;;;22.23;12.45;;;;;;;10.83;78.05;99420.69;5089930;28;20119;-73
2024/02/25 01:27:03;;;;;;;22.00;12.40;;;;;;;10.75;78.88;99415.97;5091270;28;20032;-73
2024/02/25 01:29:29;;;;;;;19.55;11.40;;;;;;;10.61;78.93;99397.44;5079059;28;20034;-73
2024/02/25 01:31:56;;;;;;;17.35;11.15;;;;;;;10.95;78.04;99422.75;5090077;28;20027;-73
2024/02/25 01:34:27;;;;;;;17.77;10.98;;;;;;;11.11;77.43;99423.00;5108448;28;20499;-73
2024/02/25 01:36:53;;;;;;;22.13;12.98;;;;;;;10.89;78.09;99410.13;5111966;28;20016;-73
2024/02/25 01:39:19;;;;;;;17.92;11.25;;;;;;;10.92;78.09;99421.47;5110849;28;20404;-73
2024/02/25 01:41:44;;;;;;;17.75;11.73;;;;;;;10.98;78.48;99418.47;5093455;28;20020;-73
2024/02/25 01:44:11;;;;;;;26.40;11.85;;;;;;;10.87;79.03;99421.66;5089950;28;20070;-73
2024/02/25 01:46:36;;;;;;;17.23;10.73;;;;;;;10.64;80.08;99404.34;5073034;28;20024;-73
2024/02/25 01:49:02;;;;;;;18.77;11.48;;;;;;;10.71;80.28;99423.41;5084465;28;20027;-73
2024/02/25 01:51:28;;;;;;;26.67;12.00;;;;;;;10.57;80.84;99402.09;5111643;28;20460;-73
2024/02/25 01:53:54;;;;;;;15.13;11.18;;;;;;;10.89;79.72;99419.34;5106945;28;20027;-73
2024/02/25 01:56:20;;;;;;;16.52;10.88;;;;;;;10.56;80.70;99388.44;5076541;28;20032;-73
2024/02/25 01:58:53;;;;;;;17.27;10.45;;;;;;;10.69;80.19;99423.72;5111029;28;20061;-73
2024/02/25 02:01:18;;;;;;;17.83;11.13;;;;;;;10.60;80.42;99414.56;5105008;28;20094;-73
2024/02/25 02:03:44;;;;;;;23.20;13.15;;;;;;;10.51;80.57;99395.03;5083001;28;20492;-73
2024/02/25 02:06:10;;;;;;;23.30;13.45;;;;;;;10.75;79.40;99410.38;5078075;28;20090;-73
2024/02/25 02:08:37;;;;;;;21.13;12.82;;;;;;;10.84;79.02;99408.34;5073776;28;20024;-73
2024/02/25 02:11:18;;;;;;;20.98;11.75;;;;;;;10.94;79.25;99429.50;5092660;28;20038;-73
2024/02/25 02:13:45;;;;;;;22.25;13.85;;;;;;;10.96;78.73;99421.59;5089953;28;20210;-73
2024/02/25 02:16:15;;;;;;;21.67;12.60;;;;;;;10.94;79.35;99429.50;5072380;28;20081;-74
2024/02/25 02:18:41;;;;;;;;;;;;;;;10.94;79.85;99440.72;5090767;28;20109;-74
2024/02/25 02:21:14;;;;;;;30.38;14.95;;;;;;;10.92;79.80;99443.88;5104819;28;19993;-74
2024/02/25 02:23:39;;;;;;;24.15;14.57;;;;;;;10.99;80.20;99432.13;5108039;28;20035;-74
2024/02/25 02:26:05;;;;;;;22.13;13.63;;;;;;;11.04;80.52;99440.31;5071966;28;20035;-74
2024/02/25 02:28:30;;;;;;;20.30;12.32;;;;;;;10.95;81.00;99434.78;5089946;28;20031;-74
2024/02/25 02:30:56;;;;;;;22.42;13.98;;;;;;;10.87;82.05;99440.44;5071952;28;20023;-75
2024/02/25 02:33:21;;;;;;;17.30;10.85;;;;;;;10.95;82.11;99450.75;5079145;28;20023;-74
2024/02/25 02:35:46;;;;;;;30.42;12.40;;;;;;;10.74;83.29;99457.13;5096688;28;20020;-74
2024/02/25 02:38:12;;;;;;;23.85;12.60;;;;;;;10.74;83.17;99462.72;5091831;28;20023;-74
2024/02/25 02:40:38;;;;;;;21.77;12.25;;;;;;;11.00;82.20;99467.34;5090486;28;20485;-74
2024/02/25 02:43:04;;;;;;;19.20;11.23;;;;;;;10.89;83.17;99478.09;5090050;28;20024;-74
2024/02/25 02:45:32;;;;;;;18.38;12.77;;;;;;;11.05;83.71;99467.16;5089828;28;20062;-74
2024/02/25 02:47:58;;;;;;;17.83;11.90;;;;;;;11.29;83.44;99476.88;5071691;28;20035;-74
2024/02/25 02:50:23;;;;;;;18.58;11.50;;;;;;;11.26;83.77;99485.13;5076703;28;20412;-74
2024/02/25 02:52:49;;;;;;;25.60;11.27;;;;;;;11.42;84.36;99479.75;5091439;28;20039;-74
2024/02/25 02:55:14;;;;;;;17.40;10.93;;;;;;;11.23;84.94;99469.84;5090762;28;20496;-74
2024/02/25 02:57:40;;;;;;;17.63;11.60;;;;;;;10.71;89.10;99482.16;5089683;28;20470;-74
2024/02/25 03:00:07;;;;;;;21.17;11.57;;;;;;;11.11;88.75;99476.19;5082007;28;20491;-74
2024/02/25 03:02:33;;;;;;;17.48;12.02;;;;;;;11.37;87.58;99478.81;5071903;28;20107;-74
2024/02/25 03:04:59;;;;;;;15.75;11.40;;;;;;;11.26;88.64;99477.56;5087652;28;20093;-74
2024/02/25 03:07:26;;;;;;;27.70;12.20;;;;;;;10.95;91.54;99479.56;5089754;28;20107;-74
2024/02/25 03:09:51;;;;;;;20.83;11.60;;;;;;;10.55;94.59;99473.50;5095924;28;20099;-74
2024/02/25 03:12:17;;;;;;;19.52;11.23;;;;;;;10.24;97.44;99480.94;5110154;28;20024;-74
2024/02/25 03:14:43;;;;;;;18.63;11.70;;;;;;;10.43;97.54;99490.94;5098502;28;20023;-74
2024/02/25 03:17:09;;;;;;;17.88;10.27;;;;;;;10.51;96.72;99502.13;5089862;28;20028;-74
2024/02/25 03:19:34;;;;;;;17.13;11.35;;;;;;;10.43;96.79;99502.97;5089801;28;20031;-74
2024/02/25 03:22:00;;;;;;;19.73;11.25;;;;;;;10.42;98.06;99498.53;5089799;28;20124;-74
2024/02/25 03:24:25;;;;;;;19.40;11.80;;;;;;;10.22;98.60;99474.88;5094107;28;20024;-73
2024/02/25 03:26:51;;;;;;;18.38;10.88;;;;;;;10.45;98.62;99500.66;5110075;28;20035;-73
2024/02/25 03:29:17;;;;;;;17.13;10.70;;;;;;;10.79;97.54;99506.44;5109465;28;20049;-73
2024/02/25 03:31:43;;;;;;;25.30;12.05;;;;;;;10.56;96.96;99511.50;5091900;28;20080;-73
2024/02/25 03:34:10;;;;;;;19.15;11.00;;;;;;;10.85;95.95;99512.69;5090153;28;20023;-73
2024/02/25 03:36:36;;;;;;;18.77;11.10;;;;;;;10.81;95.51;99477.00;5110119;28;20024;-73
2024/02/25 03:39:01;;;;;;;15.43;11.52;;;;;;;10.59;97.43;99508.84;5086367;28;20511;-73
2024/02/25 03:41:27;;;;;;;15.35;11.15;;;;;;;10.37;100.00;99523.81;5071862;28;20020;-73
2024/02/25 03:43:52;;;;;;;25.08;12.27;;;;;;;10.60;100.00;99529.22;5073369;28;20024;-73
2024/02/25 03:46:18;;;;;;;22.27;14.02;;;;;;;10.43;100.00;99510.53;5071306;28;20024;-73
2024/02/25 03:48:43;;;;;;;18.70;12.60;;;;;;;10.48;100.00;99491.59;5072964;28;20539;-73
2024/02/25 03:51:09;;;;;;;23.85;12.07;;;;;;;10.60;100.00;99512.44;5112723;28;20023;-73
2024/02/25 03:53:34;;;;;;;16.52;11.82;;;;;;;10.90;100.00;99506.91;5112784;28;20034;-73
2024/02/25 03:55:59;;;;;;;21.35;11.13;;;;;;;10.90;100.00;99506.91;5113824;28;20496;-73
2024/02/25 03:58:25;;;;;;;18.33;11.07;;;;;;;10.46;100.00;99502.28;5111370;28;20071;-73
2024/02/25 04:00:50;;;;;;;22.92;11.68;;;;;;;10.50;100.00;99494.91;5113066;28;20029;-73
2024/02/25 04:03:16;;;;;;;17.88;11.60;;;;;;;10.70;100.00;99500.91;5107316;28;20035;-73
2024/02/25 04:05:41;;;;;;;19.98;11.70;;;;;;;10.14;100.00;99507.28;5091221;28;20119;-72
2024/02/25 04:08:07;;;;;;;22.38;13.45;;;;;;;10.03;100.00;99515.19;5093320;28;20020;-73
2024/02/25 04:10:32;;;;;;;21.25;12.63;;;;;;;10.01;100.00;99509.09;5110438;28;20117;-73
2024/02/25 04:12:58;;;;;;;16.63;11.77;;;;;;;10.14;100.00;99495.28;5093115;28;20066;-73
2024/02/25 04:15:23;;;;;;;20.40;12.75;;;;;;;10.21;100.00;99523.56;5109230;28;20024;-73
2024/02/25 04:17:49;;;;;;;18.65;12.02;;;;;;;10.46;100.00;99498.69;5112470;28;20030;-73
2024/02/25 04:20:15;;;;;;;17.65;12.32;;;;;;;10.72;100.00;99515.38;5097362;28;20048;-73
2024/02/25 04:22:40;;;;;;;18.67;12.23;;;;;;;10.81;100.00;99513.38;5092978;28;20048;-73
2024/02/25 04:25:06;;;;;;;21.13;12.18;;;;;;;10.79;100.00;99507.28;5106608;28;20035;-72
2024/02/25 04:27:31;;;;;;;17.95;12.13;;;;;;;10.82;100.00;99515.00;5094960;28;20028;-72
2024/02/25 04:29:57;;;;;;;16.10;10.98;;;;;;;10.87;100.00;99507.59;5091021;28;20105;-73
2024/02/25 04:32:22;;;;;;;19.10;11.43;;;;;;;11.04;100.00;99504.69;5092690;28;20089;-73
2024/02/25 04:34:48;;;;;;;15.90;12.10;;;;;;;11.13;100.00;99506.63;5109300;28;20063;-73
2024/02/25 04:37:14;;;;;;;20.13;10.98;;;;;;;10.37;100.00;99482.72;5094604;28;20088;-73
2024/02/25 04:39:41;;;;;;;19.08;10.88;;;;;;;10.23;100.00;99505.28;5101540;28;20016;-73
2024/02/25 04:42:06;;;;;;;15.90;11.27;;;;;;;10.54;100.00;99509.00;5092623;28;20034;-73
2024/02/25 04:44:32;;;;;;;21.42;11.65;;;;;;;10.64;100.00;99530.22;5088383;28;20027;-73
2024/02/25 04:46:58;;;;;;;16.70;11.05;;;;;;;10.65;100.00;99534.66;5112998;28;20088;-73
2024/02/25 04:49:24;;;;;;;20.00;13.43;;;;;;;10.57;100.00;99546.69;5104029;28;20020;-73
2024/02/25 04:51:50;;;;;;;25.80;13.65;;;;;;;10.49;100.00;99542.75;5092066;28;20039;-73
2024/02/25 04:54:15;;;;;;;27.23;14.60;;;;;;;10.59;100.00;99536.81;5092279;28;20480;-73
2024/02/25 04:56:44;;;;;;;23.00;14.77;;;;;;;10.51;100.00;99529.25;5092321;28;20020;-73
2024/02/25 04:59:10;;;;;;;22.73;14.70;;;;;;;10.51;100.00;99541.28;5073875;28;20139;-73
2024/02/25 05:01:43;;;;;;;25.65;14.82;;;;;;;10.36;100.00;99516.59;5091778;28;20028;-73
2024/02/25 05:04:09;;;;;;;23.20;15.45;;;;;;;10.16;100.00;99530.13;5091363;28;20472;-73
2024/02/25 05:06:35;;;;;;;20.67;13.63;;;;;;;10.27;100.00;99544.56;5091114;28;20058;-73
2024/02/25 05:09:01;;;;;;;33.47;18.88;;;;;;;10.13;100.00;99550.34;5090132;28;20496;-73
2024/02/25 05:11:26;;;;;;;25.75;17.02;;;;;;;9.94;100.00;99520.78;5073726;28;20084;-73
2024/02/25 05:13:54;;;;;;;26.95;16.40;;;;;;;10.17;100.00;99559.72;5090423;28;20081;-73
2024/02/25 05:16:19;;;;;;;52.40;27.92;;;;;;;10.17;100.00;99570.06;5094053;28;20484;-73
2024/02/25 05:18:45;;;;;;;33.67;25.58;;;;;;;10.19;100.00;99565.81;5093134;28;20105;-73
2024/02/25 05:21:10;;;;;;;31.90;18.38;;;;;;;10.38;100.00;99579.44;5093927;28;20028;-73
2024/02/25 05:23:36;;;;;;;26.98;16.40;;;;;;;10.27;100.00;99574.53;5092145;28;20038;-73
2024/02/25 05:26:04;;;;;;;26.85;15.70;;;;;;;10.10;100.00;99570.56;5073369;28;20554;-73
2024/02/25 05:28:30;;;;;;;29.00;18.65;;;;;;;9.77;100.00;99573.84;5091696;28;20152;-73
2024/02/25 05:30:56;;;;;;;48.15;30.65;;;;;;;9.37;100.00;99572.78;5092464;28;20027;-73
2024/02/25 05:33:21;;;;;;;43.72;27.83;;;;;;;9.73;100.00;99558.91;5111568;28;20023;-73
2024/02/25 05:35:47;;;;;;;43.17;25.60;;;;;;;10.08;100.00;99562.53;5084964;28;20036;-73
2024/02/25 05:38:12;;;;;;;31.60;22.00;;;;;;;10.18;100.00;99561.38;5073287;28;20024;-76
2024/02/25 05:40:40;;;;;;;40.35;24.17;;;;;;;10.29;100.00;99567.44;5109481;28;20089;-74
2024/02/25 05:43:10;;;;;;;37.33;19.52;;;;;;;10.36;100.00;99561.34;5092875;28;20039;-74
2024/02/25 05:45:35;;;;;;;27.75;16.73;;;;;;;10.09;100.00;99558.59;5092923;28;20028;-73
2024/02/25 05:48:01;;;;;;;29.02;15.82;;;;;;;10.20;100.00;99547.88;5111340;28;20410;-74
2024/02/25 05:50:26;;;;;;;48.78;26.58;;;;;;;10.39;100.00;99558.69;5095449;28;20095;-71
2024/02/25 05:52:52;;;;;;;82.75;50.70;;;;;;;10.29;100.00;99561.03;5111475;28;20027;-73
2024/02/25 05:55:18;;;;;;;64.95;41.70;;;;;;;10.37;100.00;99557.38;5097869;28;20553;-75
2024/02/25 05:57:43;;;;;;;68.03;37.47;;;;;;;10.52;100.00;99554.13;5085684;28;20040;-75
2024/02/25 06:00:11;;;;;;;72.22;35.63;;;;;;;10.50;100.00;99556.44;5091974;28;20111;-76
2024/02/25 06:02:40;;;;;;;52.33;26.70;;;;;;;10.70;100.00;99559.66;5110781;28;20034;-74
2024/02/25 06:05:09;;;;;;;39.58;25.65;;;;;;;10.63;100.00;99556.56;5097001;28;20063;-74
2024/02/25 06:07:34;;;;;;;35.08;22.40;;;;;;;10.60;100.00;99557.19;5109908;28;20031;-70
2024/02/25 06:10:00;;;;;;;32.08;21.35;;;;;;;10.68;100.00;99553.56;5098001;28;20043;-72
2024/02/25 06:12:25;;;;;;;34.38;20.92;;;;;;;10.62;100.00;99552.13;5104198;28;20036;-73
2024/02/25 06:14:51;;;;;;;40.83;29.02;;;;;;;10.46;100.00;99563.81;5098234;28;20031;-71
2024/02/25 06:17:16;;;;;;;21.10;14.70;;;;;;;10.47;100.00;99553.47;5104206;28;20362;-71
2024/02/25 06:19:42;;;;;;;27.67;17.70;;;;;;;10.45;100.00;99559.38;5111328;28;20749;-72
2024/02/25 06:22:07;;;;;;;26.02;18.85;;;;;;;10.06;100.00;99553.63;5111501;28;20028;-71
2024/02/25 06:24:33;;;;;;;37.33;22.00;;;;;;;10.19;100.00;99551.81;5111291;28;20127;-71
2024/02/25 06:26:58;;;;;;;41.10;20.67;;;;;;;10.34;100.00;99556.09;5111569;28;20031;-72
2024/02/25 06:29:24;;;;;;;37.50;24.42;;;;;;;10.42;100.00;99548.03;5102624;28;20028;-72
2024/02/25 06:31:50;;;;;;;29.20;21.33;;;;;;;10.48;100.00;99541.13;5101896;28;20036;-71
2024/02/25 06:34:15;;;;;;;30.02;19.92;;;;;;;10.08;100.00;99540.19;5085256;28;20031;-71
2024/02/25 06:36:41;;;;;;;28.15;17.27;;;;;;;10.06;100.00;99552.81;5111413;28;20046;-74
2024/02/25 06:39:08;;;;;;;30.23;20.70;;;;;;;10.29;100.00;99550.66;5086343;28;20032;-74
2024/02/25 06:41:34;;;;;;;53.42;28.02;;;;;;;10.23;100.00;99543.59;5096118;28;20027;-73
2024/02/25 06:43:59;;;;;;;50.80;27.63;;;;;;;10.27;100.00;99540.97;5091291;28;20088;-74
2024/02/25 06:46:26;;;;;;;51.42;28.45;;;;;;;10.41;100.00;99552.81;5110354;28;20561;-74
2024/02/25 06:48:51;;;;;;;52.55;30.80;;;;;;;10.23;100.00;99560.38;5088032;28;20507;-74
2024/02/25 06:51:26;;;;;;;54.60;31.90;;;;;;;10.23;100.00;99544.41;5089797;28;20032;-74
2024/02/25 06:53:54;;;;;;;77.30;41.65;;;;;;;10.29;100.00;99564.63;5103755;28;20031;-74
2024/02/25 06:56:20;;;;;;;49.75;30.60;;;;;;;9.88;100.00;99555.59;5089428;28;20036;-74
2024/02/25 06:58:46;;;;;;;54.78;31.38;;;;;;;9.98;100.00;99560.06;5089359;28;20047;-74
2024/02/25 07:01:13;;;;;;;38.35;25.35;;;;;;;10.06;100.00;99561.22;5071353;28;20028;-74
2024/02/25 07:03:42;;;;;;;37.67;23.85;;;;;;;9.84;100.00;99560.22;5089644;28;20165;-74
2024/02/25 07:06:10;;;;;;;34.90;20.90;;;;;;;9.93;100.00;99557.41;5106597;28;20499;-74
2024/02/25 07:08:35;;;;;;;28.83;19.33;;;;;;;10.10;100.00;99565.81;5105673;28;20031;-74
2024/02/25 07:11:01;;;;;;;34.53;20.35;;;;;;;10.14;100.00;99559.56;5089059;28;20088;-74
2024/02/25 07:13:26;;;;;;;39.67;23.58;;;;;;;10.18;100.00;99547.38;5108875;28;20425;-74
2024/02/25 07:15:52;;;;;;;39.38;23.98;;;;;;;10.47;100.00;99545.88;5071381;28;20024;-74
2024/02/25 07:18:17;;;;;;;36.22;22.48;;;;;;;10.80;100.00;99555.69;5089529;28;20034;-74
2024/02/25 07:20:43;;;;;;;36.72;22.88;;;;;;;10.99;100.00;99563.69;5089239;28;20028;-74
2024/02/25 07:23:08;;;;;;;38.00;23.10;;;;;;;11.05;100.00;99553.91;5108905;28;20031;-74
2024/02/25 07:25:34;;;;;;;27.02;18.92;;;;;;;11.13;100.00;99546.63;5093326;28;20043;-74
2024/02/25 07:28:00;;;;;;;28.67;19.27;;;;;;;11.34;100.00;99557.06;5075264;28;20073;-74
2024/02/25 07:30:25;;;;;;;33.42;18.55;;;;;;;11.34;100.00;99557.91;5092892;28;20028;-74
2024/02/25 07:32:50;;;;;;;28.55;19.13;;;;;;;11.44;100.00;99553.06;5074937;28;20027;-74
2024/02/25 07:35:16;;;;;;;29.25;18.50;;;;;;;11.62;100.00;99549.00;5075097;28;20042;-74
2024/02/25 07:37:41;;;;;;;29.38;17.30;;;;;;;11.22;100.00;99547.41;5109728;28;20027;-74
2024/02/25 07:40:09;;;;;;;24.60;17.38;;;;;;;11.33;100.00;99561.03;5098782;28;20032;-74
2024/02/25 07:42:34;;;;;;;26.00;14.82;;;;;;;11.51;100.00;99558.94;5113390;28;20094;-74
2024/02/25 07:45:00;;;;;;;22.85;15.55;;;;;;;11.59;100.00;99558.09;5090952;28;20039;-74
2024/02/25 07:47:25;;;;;;;22.50;14.50;;;;;;;11.66;100.00;99558.34;5100195;28;20031;-72
2024/02/25 07:49:51;;;;;;;19.55;14.05;;;;;;;11.82;100.00;99565.34;5084824;28;20108;-72
2024/02/25 07:52:16;;;;;;;31.42;21.45;;;;;;;11.99;100.00;99561.56;5112618;28;20089;-73
2024/02/25 07:54:42;;;;;;;32.83;17.67;;;;;;;12.08;100.00;99570.78;5090360;28;20023;-72
2024/02/25 07:57:08;;;;;;;23.38;15.77;;;;;;;12.09;100.00;99561.19;5112993;28;20055;-72
2024/02/25 07:59:34;;;;;;;26.70;17.25;;;;;;;11.90;100.00;99559.66;5106317;28;20046;-74
2024/02/25 08:01:59;;;;;;;26.98;17.20;;;;;;;11.92;100.00;99556.53;5080263;28;20481;-73
2024/02/25 08:04:25;;;;;;;33.65;17.67;;;;;;;11.68;100.00;99548.78;5080420;28;20024;-74
2024/02/25 08:06:50;;;;;;;37.00;23.17;;;;;;;12.00;100.00;99550.00;5103182;28;20039;-73
2024/02/25 08:09:16;;;;;;;37.08;19.75;;;;;;;12.15;100.00;99536.56;5078325;28;20031;-73
2024/02/25 08:11:41;;;;;;;31.17;19.02;;;;;;;12.24;100.00;99551.31;5074275;28;20035;-73
2024/02/25 08:14:07;;;;;;;32.22;19.48;;;;;;;12.32;100.00;99549.63;5075921;28;20110;-74
2024/02/25 08:16:35;;;;;;;37.03;22.92;;;;;;;12.21;100.00;99552.84;5092336;28;20102;-74
2024/02/25 08:19:01;;;;;;;37.22;20.95;;;;;;;12.29;100.00;99548.31;5092111;28;20031;-73
2024/02/25 08:21:26;;;;;;;35.75;18.83;;;;;;;12.49;100.00;99546.63;5092375;28;20019;-73
2024/02/25 08:23:52;;;;;;;27.23;17.27;;;;;;;12.65;100.00;99537.53;5105006;28;20023;-76
2024/02/25 08:26:17;;;;;;;34.20;20.02;;;;;;;12.63;100.00;99545.47;5112694;28;20026;-71
2024/02/25 08:28:43;;;;;;;32.90;18.77;;;;;;;12.80;100.00;99547.28;5079802;28;20152;-77
2024/02/25 08:31:08;;;;;;;28.20;18.38;;;;;;;12.48;100.00;99530.94;5083555;28;20164;-78
2024/02/25 08:33:35;;;;;;;27.45;18.48;;;;;;;12.59;100.00;99528.50;5106050;28;20061;-75
2024/02/25 08:36:01;;;;;;;28.13;16.90;;;;;;;12.78;100.00;99530.75;5079343;28;20035;-71
2024/02/25 08:38:26;;;;;;;31.15;18.13;;;;;;;12.82;100.00;99532.91;5107510;28;20520;-72
2024/02/25 08:40:52;;;;;;;24.77;16.80;;;;;;;12.91;100.00;99539.19;5089352;28;20460;-70
2024/02/25 08:43:17;;;;;;;24.75;16.70;;;;;;;12.72;100.00;99525.72;5084573;28;20028;-72
2024/02/25 08:45:42;;;;;;;21.25;14.98;;;;;;;12.72;100.00;99520.94;5087996;28;20030;-72
2024/02/25 08:48:08;;;;;;;21.60;15.10;;;;;;;12.77;100.00;99520.72;5107500;28;20031;-72
2024/02/25 08:50:33;;;;;;;22.73;16.35;;;;;;;12.58;100.00;99526.88;5087797;28;20525;-74
2024/02/25 08:52:59;;;;;;;24.92;16.33;;;;;;;12.44;100.00;99521.59;5104937;28;20531;-74
2024/02/25 08:55:24;;;;;;;30.10;19.10;;;;;;;12.59;100.00;99516.50;5089280;28;20032;-73
2024/02/25 08:57:50;;;;;;;40.03;21.25;;;;;;;12.58;100.00;99517.66;5072125;28;20067;-74
2024/02/25 09:00:15;;;;;;;45.45;27.48;;;;;;;12.64;100.00;99519.06;5093838;28;20032;-73
2024/02/25 09:02:41;;;;;;;27.77;18.42;;;;;;;12.58;100.00;99514.84;5091682;28;20502;-74
2024/02/25 09:05:07;;;;;;;33.15;19.35;;;;;;;12.67;100.00;99509.97;5085314;28;20524;-74
2024/02/25 09:07:35;;;;;;;36.38;19.63;;;;;;;12.64;100.00;99513.44;5079316;28;20107;-74
2024/02/25 09:10:01;;;;;;;35.78;19.52;;;;;;;12.83;100.00;99506.47;5083155;28;20078;-72
2024/02/25 09:12:27;;;;;;;31.70;18.88;;;;;;;13.05;100.00;99513.59;5089087;28;20060;-70
2024/02/25 09:14:53;;;;;;;26.92;18.73;;;;;;;13.14;100.00;99510.66;5088697;28;20412;-71
2024/02/25 09:17:18;;;;;;;25.45;16.98;;;;;;;13.28;99.57;99508.34;5088507;28;20085;-70
2024/02/25 09:19:44;;;;;;;26.38;15.70;;;;;;;13.12;99.68;99496.16;5101489;28;20027;-70
2024/02/25 09:22:09;;;;;;;28.95;16.85;;;;;;;13.08;100.00;99498.06;5089777;28;20089;-70
2024/02/25 09:24:35;;;;;;;25.35;16.15;;;;;;;13.06;100.00;99499.22;5086389;28;20557;-74
2024/02/25 09:27:00;;;;;;;25.52;16.55;;;;;;;13.12;100.00;99498.97;5072610;28;20027;-74
2024/02/25 09:29:26;;;;;;;26.10;15.40;;;;;;;13.28;100.00;99491.50;5092682;28;20476;-74
2024/02/25 09:31:55;;;;;;;32.10;17.73;;;;;;;13.21;100.00;99494.06;5092188;28;20492;-74
2024/02/25 09:34:21;;;;;;;26.00;16.42;;;;;;;13.12;100.00;99488.56;5089869;28;20496;-74
2024/02/25 09:36:47;;;;;;;22.02;15.00;;;;;;;13.21;100.00;99485.63;5110502;28;20020;-75
2024/02/25 09:39:12;;;;;;;23.08;14.38;;;;;;;13.19;100.00;99487.97;5108610;28;20631;-75
2024/02/25 09:41:41;;;;;;;31.73;15.75;;;;;;;13.10;100.00;99479.69;5090655;28;20020;-72
2024/02/25 09:44:20;;;;;;;28.98;15.68;;;;;;;13.07;100.00;99474.75;5106488;28;20438;-75
2024/02/25 09:46:46;;;;;;;26.05;14.27;;;;;;;12.81;100.00;99459.09;5109371;28;20527;-75
2024/02/25 09:49:14;;;;;;;21.88;14.90;;;;;;;12.97;100.00;99461.19;5102148;28;20028;-75
2024/02/25 09:51:41;;;;;;;27.48;15.38;;;;;;;13.19;100.00;99468.31;5088774;28;20103;-75
2024/02/25 09:54:07;;;;;;;21.98;15.20;;;;;;;12.98;100.00;99457.22;5071910;28;20400;-75
2024/02/25 09:56:33;;;;;;;27.02;15.40;;;;;;;12.77;100.00;99450.53;5071121;28;20028;-75
2024/02/25 09:58:58;;;;;;;22.23;15.10;;;;;;;12.87;100.00;99454.06;5090342;28;20040;-75
2024/02/25 10:01:25;;;;;;;24.88;15.93;;;;;;;12.99;100.00;99467.28;5090465;28;20093;-75
2024/02/25 10:03:51;;;;;;;26.20;15.93;;;;;;;12.93;100.00;99455.47;5072338;28;20062;-75
2024/02/25 10:06:16;;;;;;;22.80;15.60;;;;;;;12.92;100.00;99448.22;5090373;28;20055;-75
2024/02/25 10:08:49;;;;;;;30.88;17.90;;;;;;;12.94;100.00;99451.50;5090017;28;20024;-75
2024/02/25 10:11:15;;;;;;;30.75;21.08;;;;;;;12.95;100.00;99455.09;5072057;28;20020;-75
2024/02/25 10:13:43;;;;;;;41.75;23.88;;;;;;;13.08;100.00;99445.50;5072044;28;20504;-75
2024/02/25 10:16:17;;;;;;;29.75;17.17;;;;;;;13.23;100.00;99443.97;5090239;28;20012;-75
2024/02/25 10:18:43;;;;;;;30.38;20.15;;;;;;;13.41;100.00;99440.91;5071779;28;20164;-75
2024/02/25 10:21:10;;;;;;;33.10;19.60;;;;;;;13.56;100.00;99437.38;5071700;28;20017;-75
2024/02/25 10:23:35;;;;;;;38.67;19.67;;;;;;;13.62;100.00;99444.38;5090888;28;20030;-75
2024/02/25 10:26:16;;;;;;;32.60;18.95;;;;;;;13.63;100.00;99433.94;5110960;28;20027;-75
2024/02/25 10:28:44;;;;;;;;;;;;;;;13.56;100.00;99433.72;5109935;28;20035;-75
2024/02/25 10:31:12;;;;;;;32.80;17.02;;;;;;;13.74;100.00;99428.63;5091986;28;19939;-73
2024/02/25 10:33:38;;;;;;;29.70;17.15;;;;;;;13.46;100.00;99426.63;5104416;28;20446;-77
2024/02/25 10:36:08;;;;;;;31.08;17.70;;;;;;;13.27;100.00;99433.69;5095039;28;20023;-76
2024/02/25 10:38:37;;;;;;;26.48;16.67;;;;;;;13.24;100.00;99430.75;5104012;28;20020;-77
2024/02/25 10:41:04;;;;;;;29.93;18.57;;;;;;;13.36;100.00;99427.91;5089408;28;20028;-77
2024/02/25 10:43:32;;;;;;;31.17;18.17;;;;;;;13.45;100.00;99410.94;5087824;28;20506;-77
2024/02/25 10:46:04;;;;;;;29.02;18.30;;;;;;;13.52;100.00;99401.91;5087722;28;20056;-74
2024/02/25 10:48:31;;;;;;;35.80;22.08;;;;;;;13.21;100.00;99395.75;5087518;28;20035;-74
2024/02/25 10:50:58;;;;;;;37.00;24.10;;;;;;;13.16;100.00;99408.06;5108052;28;20020;-74
2024/02/25 10:53:28;;;;;;;40.92;22.73;;;;;;;13.34;100.00;99405.00;5107216;28;20047;-75
2024/02/25 10:55:58;;;;;;;71.90;41.20;;;;;;;13.46;100.00;99410.59;5068910;28;20040;-76
2024/02/25 10:58:25;;;;;;;96.40;51.55;;;;;;;13.44;100.00;99417.75;5087009;28;20497;-74
2024/02/25 11:00:52;;;;;;;38.42;20.33;;;;;;;13.31;100.00;99406.50;5069595;28;20523;-73
2024/02/25 11:03:19;;;;;;;33.00;19.85;;;;;;;13.28;100.00;99395.16;5092843;28;20465;-73
2024/02/25 11:05:45;;;;;;;34.40;21.35;;;;;;;13.24;100.00;99397.84;5072576;28;20085;-73
2024/02/25 11:08:11;;;;;;;34.28;18.98;;;;;;;12.60;100.00;99383.44;5085645;28;20242;-73